CheckWX is a tool to help pilots better visualize weather data.  It is not intended as a substitute for an official pre-flight weather briefing.

04:20:07 UTC

CYXJ METAR
Fort St John Airport
Fort St.John, Canada
Current

1 hour ago

CYXJ 270300Z 22004KT 140V260 15SM VCSH FEW040CB BKN080 BKN110 16/09 A3002 RMK CB2AC4AC1 AC TR SLP177 DENSITY ALT 2800FT
Observed
Jun-27 @ 03:00 UTC
Wind
  • 220° at 4 KTS
Visibility
15 SM
Flight Rules
VFR
Cloud Levels
  • Few at 4,000' AGL
  • Broken at 8,000' AGL
  • Broken at 11,000' AGL
Temperature
16°C / 61°F
Dewpoint
C / 48°F
Humidity
63%
Altimeter
30.02" Hg
Pressure
1016.62 hPa
Previous

2 hours ago

CYXJ 270200Z 11015G22KT 15SM VCSH FEW032CB BKN070 BKN120 BKN220 17/09 A2999 RMK CB2AC3AC1CI1 CI TR SLP168 DENSITY ALT 3000FT
Observed
Jun-27 @ 02:00 UTC
Wind
  • 110° at 15 KTS
  • Gusting to 22 KTS
Visibility
15 SM
Flight Rules
VFR
Cloud Levels
  • Few at 3,200' AGL
  • Broken at 7,000' AGL
  • Broken at 12,000' AGL
  • Broken at 22,000' AGL
Temperature
17°C / 63°F
Dewpoint
C / 48°F
Humidity
59%
Altimeter
29.99" Hg
Pressure
1015.62 hPa
Previous

3 hours ago

CYXJ 270100Z 10009KT 50SM VCSH SCT040CB BKN120 BKN220 21/11 A2997 RMK CB3AC3CI1 SLP160 DENSITY ALT 3500FT
Observed
Jun-27 @ 01:00 UTC
Wind
  • 100° at 9 KTS
Visibility
50 SM
Flight Rules
VFR
Cloud Levels
  • Scattered at 4,000' AGL
  • Broken at 12,000' AGL
  • Broken at 22,000' AGL
Temperature
21°C / 70°F
Dewpoint
11°C / 52°F
Humidity
53%
Altimeter
29.97" Hg
Pressure
1014.92 hPa